Time;durP1;ratioP1;P1;durP2;ratioP2;P2;SDS_P1;SDS_P2;PMS_P1;PMS_P2;Temp;Humidity;BMP_temperature;BMP_pressure;BME280_temperature;BME280_humidity;BME280_pressure;Samples;Min_cycle;Max_cycle;Signal;HPM_P1;HPM_P2
2020/12/30 10:05:23;;;;;;;18.60;10.80;;;5.10;99.90;;;;;;5104784;27;20330;-76
2020/12/30 10:07:49;;;;;;;20.38;10.90;;;5.40;99.90;;;;;;5087566;28;20029;-75
2020/12/30 10:10:15;;;;;;;17.48;9.80;;;5.70;99.90;;;;;;5087873;28;20269;-77
2020/12/30 10:12:40;;;;;;;27.58;9.88;;;6.10;99.90;;;;;;5093187;28;20028;-76
2020/12/30 10:15:11;;;;;;;22.42;10.25;;;6.40;99.90;;;;;;5088438;27;20522;-75
2020/12/30 10:17:38;;;;;;;16.92;10.35;;;6.70;99.90;;;;;;5062755;28;20033;-73
2020/12/30 10:20:06;;;;;;;19.17;10.52;;;7.00;99.90;;;;;;5061173;28;20033;-74
2020/12/30 10:22:32;;;;;;;17.00;10.15;;;7.20;99.90;;;;;;5066306;28;20029;-74
2020/12/30 10:25:00;;;;;;;22.50;9.82;;;7.30;99.90;;;;;;5061091;28;20127;-74
2020/12/30 10:35:50;;;;;;;23.15;10.35;;;6.80;99.90;;;;;;5096600;27;20346;-74
2020/12/30 10:38:16;;;;;;;19.27;9.60;;;6.70;99.90;;;;;;5093466;28;20028;-74
2020/12/30 10:40:41;;;;;;;20.25;10.50;;;6.90;99.90;;;;;;5094608;28;20433;-76
2020/12/30 10:43:07;;;;;;;16.33;10.23;;;7.00;99.90;;;;;;5086530;28;20103;-75
2020/12/30 10:45:32;;;;;;;20.50;10.13;;;7.10;99.90;;;;;;5088542;27;20032;-74
2020/12/30 10:47:58;;;;;;;18.15;10.30;;;7.20;99.90;;;;;;5060884;28;20477;-74
2020/12/30 10:50:24;;;;;;;20.50;10.07;;;7.30;99.90;;;;;;5037113;28;20024;-76
2020/12/30 10:52:49;;;;;;;17.35;9.57;;;7.40;99.90;;;;;;5057535;28;20036;-79
2020/12/30 10:55:17;;;;;;;16.90;9.20;;;7.50;99.90;;;;;;5059451;28;20029;-81
2020/12/30 10:57:43;;;;;;;16.55;9.85;;;7.50;99.90;;;;;;5046971;28;20037;-78
2020/12/30 11:00:08;;;;;;;18.65;9.20;;;7.40;99.90;;;;;;5067197;28;20135;-77
2020/12/30 11:02:34;;;;;;;17.52;9.85;;;7.30;99.90;;;;;;5058862;28;20021;-76
2020/12/30 11:05:00;;;;;;;18.25;9.88;;;7.40;99.90;;;;;;5063530;28;20637;-77
2020/12/30 11:07:25;;;;;;;19.80;10.68;;;7.40;99.90;;;;;;5064776;28;20025;-79
2020/12/30 11:09:51;;;;;;;17.92;10.15;;;7.50;99.90;;;;;;5057022;28;20040;-84
2020/12/30 11:12:17;;;;;;;19.00;9.27;;;7.50;99.90;;;;;;5047688;28;20024;-78
2020/12/30 11:14:42;;;;;;;18.40;10.10;;;7.60;99.90;;;;;;5059103;28;20044;-75
2020/12/30 11:17:08;;;;;;;15.70;9.35;;;7.70;99.90;;;;;;5063349;28;20052;-76
2020/12/30 11:19:34;;;;;;;15.45;8.95;;;7.60;99.90;;;;;;5051206;28;20048;-76
2020/12/30 11:22:01;;;;;;;17.60;9.18;;;7.50;99.90;;;;;;5071741;28;20029;-75
2020/12/30 11:24:26;;;;;;;19.70;9.27;;;7.50;99.90;;;;;;5047461;28;21042;-75
2020/12/30 11:26:52;;;;;;;19.10;9.27;;;7.50;99.90;;;;;;5053278;28;20114;-76
2020/12/30 11:29:17;;;;;;;15.82;9.25;;;7.50;99.90;;;;;;5059794;28;20021;-76
2020/12/30 11:31:43;;;;;;;17.08;9.20;;;7.60;99.90;;;;;;5057738;28;20653;-77
2020/12/30 11:34:10;;;;;;;15.13;9.30;;;7.70;99.90;;;;;;5060559;28;20032;-76
2020/12/30 11:36:36;;;;;;;16.35;8.55;;;7.80;99.90;;;;;;5049206;28;20570;-76
2020/12/30 11:39:02;;;;;;;14.48;8.52;;;7.80;99.90;;;;;;5047810;28;20056;-76
2020/12/30 11:41:28;;;;;;;17.55;9.18;;;7.90;99.90;;;;;;5055217;28;20499;-77
2020/12/30 11:43:54;;;;;;;16.55;8.48;;;7.90;99.90;;;;;;5058762;28;20033;-76
2020/12/30 11:46:21;;;;;;;16.95;8.95;;;7.90;99.90;;;;;;5052954;28;20040;-78
2020/12/30 11:48:47;;;;;;;12.45;7.53;;;7.90;99.90;;;;;;5047580;28;20033;-77
2020/12/30 11:51:13;;;;;;;12.90;7.78;;;7.90;99.90;;;;;;5052593;28;20021;-77
2020/12/30 11:53:38;;;;;;;14.00;7.85;;;7.90;99.90;;;;;;5043244;28;20036;-76
2020/12/30 11:56:04;;;;;;;17.83;8.50;;;7.90;99.90;;;;;;5034238;28;20029;-74
2020/12/30 11:58:30;;;;;;;17.08;8.18;;;8.00;99.90;;;;;;5028720;28;20124;-74
2020/12/30 12:00:59;;;;;;;18.23;8.20;;;8.00;99.90;;;;;;5041820;28;20530;-74
2020/12/30 12:03:24;;;;;;;14.68;7.50;;;8.00;99.90;;;;;;5029420;28;20029;-75
2020/12/30 12:05:50;;;;;;;13.18;8.55;;;8.00;99.90;;;;;;5046814;28;20029;-75
2020/12/30 12:08:16;;;;;;;16.20;7.82;;;8.00;99.90;;;;;;5041856;28;20039;-74
2020/12/30 12:10:41;;;;;;;22.17;8.57;;;8.10;99.90;;;;;;5042193;28;20048;-72
2020/12/30 12:13:07;;;;;;;18.40;7.80;;;8.10;99.90;;;;;;5030722;28;20057;-73
2020/12/30 12:15:33;;;;;;;14.82;7.57;;;8.20;99.90;;;;;;5040358;28;20133;-74
2020/12/30 12:17:58;;;;;;;17.02;7.95;;;8.10;99.90;;;;;;5023123;28;20040;-73
2020/12/30 12:20:24;;;;;;;12.93;7.60;;;8.10;99.90;;;;;;5044582;28;20032;-73
2020/12/30 12:22:49;;;;;;;15.32;7.75;;;8.20;99.90;;;;;;5046031;28;20072;-73
2020/12/30 12:25:16;;;;;;;22.15;8.23;;;8.20;99.90;;;;;;5041750;28;20033;-74
2020/12/30 12:27:42;;;;;;;18.42;7.57;;;8.20;99.90;;;;;;5041995;28;20028;-73
2020/12/30 12:30:08;;;;;;;13.27;6.90;;;8.40;99.90;;;;;;5041412;28;20199;-73
2020/12/30 12:32:33;;;;;;;16.45;6.97;;;8.40;99.90;;;;;;5036972;28;20051;-74
2020/12/30 12:34:59;;;;;;;16.60;7.50;;;8.50;99.90;;;;;;5043463;28;20037;-73
2020/12/30 12:37:25;;;;;;;14.82;7.13;;;8.60;99.90;;;;;;5045461;28;20025;-75
2020/12/30 12:39:53;;;;;;;16.55;7.70;;;8.60;99.90;;;;;;5046439;28;20045;-74
2020/12/30 12:42:20;;;;;;;12.63;6.95;;;8.80;99.90;;;;;;5049429;28;20021;-73
2020/12/30 12:44:46;;;;;;;11.75;6.10;;;8.80;99.90;;;;;;5042991;28;20527;-74
2020/12/30 12:47:12;;;;;;;12.73;6.45;;;8.70;99.90;;;;;;5042956;28;20129;-74
2020/12/30 12:49:38;;;;;;;14.48;6.28;;;8.80;99.90;;;;;;5045055;28;20052;-74
2020/12/30 12:52:04;;;;;;;15.20;6.35;;;8.90;99.90;;;;;;5028176;28;20069;-76
2020/12/30 12:54:31;;;;;;;12.43;6.65;;;8.80;99.90;;;;;;5046812;28;20048;-75
2020/12/30 12:57:01;;;;;;;11.93;5.03;;;8.90;99.90;;;;;;5038513;28;20048;-74
2020/12/30 12:59:27;;;;;;;10.88;5.20;;;8.90;99.90;;;;;;5042691;28;20033;-74
2020/12/30 13:01:53;;;;;;;13.70;4.97;;;8.80;99.90;;;;;;5042530;28;20091;-74
2020/12/30 13:04:19;;;;;;;9.55;5.07;;;8.80;99.90;;;;;;5040161;28;20025;-74
2020/12/30 13:06:45;;;;;;;13.57;5.75;;;9.00;99.90;;;;;;5042160;28;20311;-73
2020/12/30 13:09:11;;;;;;;10.13;4.97;;;9.00;99.90;;;;;;5042074;28;20086;-74
2020/12/30 13:11:49;;;;;;;11.93;5.13;;;8.90;99.90;;;;;;5043094;28;20025;-73
2020/12/30 13:14:16;;;;;;;9.20;4.82;;;9.00;99.90;;;;;;5043859;28;20551;-73
2020/12/30 13:16:50;;;;;;;13.68;4.90;;;8.80;99.90;;;;;;5044536;28;20060;-73
2020/12/30 13:19:17;;;;;;;13.02;4.95;;;9.00;99.90;;;;;;5040382;28;20044;-74
2020/12/30 13:21:43;;;;;;;10.32;5.28;;;8.90;99.90;;;;;;5036107;28;20505;-73
2020/12/30 13:24:09;;;;;;;12.32;5.53;;;9.00;99.90;;;;;;5021699;28;20484;-74
2020/12/30 13:26:35;;;;;;;10.38;4.80;;;9.10;99.90;;;;;;5038571;28;20036;-74
2020/12/30 13:29:01;;;;;;;13.13;5.50;;;9.20;99.90;;;;;;5040456;28;20025;-73
2020/12/30 13:31:26;;;;;;;10.60;5.45;;;9.20;99.90;;;;;;5040821;28;20829;-74
2020/12/30 13:33:52;;;;;;;14.75;6.25;;;9.30;99.90;;;;;;5038353;28;20116;-74
2020/12/30 13:36:25;;;;;;;9.75;5.50;;;9.30;99.90;;;;;;5039705;28;20023;-74
2020/12/30 13:38:52;;;;;;;21.65;9.60;;;9.30;99.90;;;;;;5026319;28;20448;-73
2020/12/30 13:41:18;;;;;;;31.40;15.07;;;9.30;99.90;;;;;;5040422;28;20075;-74
2020/12/30 13:43:45;;;;;;;19.15;8.13;;;9.30;99.90;;;;;;5039737;28;20164;-73
2020/12/30 13:46:11;;;;;;;10.25;5.15;;;9.30;99.90;;;;;;5034610;28;20065;-73
2020/12/30 13:48:37;;;;;;;15.55;6.68;;;9.30;99.90;;;;;;5037850;28;20025;-74
2020/12/30 13:51:04;;;;;;;9.45;4.45;;;9.30;99.90;;;;;;5039500;28;20400;-75
2020/12/30 13:53:30;;;;;;;9.57;4.22;;;9.20;99.90;;;;;;5037922;28;20018;-73
2020/12/30 13:55:56;;;;;;;8.32;3.95;;;9.20;99.90;;;;;;5042619;28;20395;-74
2020/12/30 13:58:21;;;;;;;9.90;4.10;;;9.20;99.90;;;;;;5044333;28;20017;-74
2020/12/30 14:00:47;;;;;;;10.45;4.68;;;9.20;99.90;;;;;;5038316;28;20451;-73
2020/12/30 14:03:13;;;;;;;11.60;3.92;;;9.10;99.90;;;;;;5039938;28;20469;-74
2020/12/30 14:05:38;;;;;;;9.85;3.63;;;9.10;99.90;;;;;;5035588;28;20032;-72
2020/12/30 14:08:04;;;;;;;7.10;4.00;;;8.90;99.90;;;;;;5039345;28;20067;-73
2020/12/30 14:10:31;;;;;;;11.13;4.00;;;9.00;99.90;;;;;;5037958;28;20044;-74
2020/12/30 14:12:56;;;;;;;9.85;5.53;;;9.10;99.90;;;;;;5040467;28;20021;-75
2020/12/30 14:15:22;;;;;;;11.43;6.72;;;9.10;99.90;;;;;;5040772;28;20049;-75
2020/12/30 14:17:52;;;;;;;17.17;6.03;;;9.20;99.90;;;;;;5040015;28;20021;-75
2020/12/30 14:20:18;;;;;;;15.88;6.40;;;9.20;99.90;;;;;;5024211;28;20052;-76
2020/12/30 14:22:44;;;;;;;12.13;5.63;;;9.20;99.90;;;;;;5039004;28;20025;-74
2020/12/30 14:25:09;;;;;;;11.48;5.45;;;9.20;99.90;;;;;;5041205;28;20031;-76
2020/12/30 14:27:35;;;;;;;8.85;5.28;;;9.10;99.90;;;;;;5039437;28;20021;-74
2020/12/30 14:30:01;;;;;;;14.88;5.35;;;9.10;99.90;;;;;;5024630;28;20510;-74
2020/12/30 14:32:26;;;;;;;12.35;5.47;;;8.90;99.90;;;;;;5034586;28;20029;-75
2020/12/30 14:34:52;;;;;;;10.95;5.47;;;8.80;99.90;;;;;;5043067;28;20049;-75
2020/12/30 14:37:17;;;;;;;16.50;5.78;;;8.70;99.90;;;;;;5035630;28;20020;-75
2020/12/30 14:39:43;;;;;;;11.07;5.57;;;8.80;99.90;;;;;;5039974;28;20464;-74
2020/12/30 14:42:09;;;;;;;11.82;6.28;;;8.70;99.90;;;;;;5039452;28;20061;-75
2020/12/30 14:44:34;;;;;;;14.40;6.28;;;8.70;99.90;;;;;;5037545;28;20029;-75
2020/12/30 14:47:00;;;;;;;15.45;6.97;;;8.70;99.90;;;;;;5034603;28;20089;-75
2020/12/30 14:49:25;;;;;;;19.23;6.97;;;8.70;99.90;;;;;;5021155;28;20037;-76
2020/12/30 14:51:52;;;;;;;12.88;6.93;;;8.70;99.90;;;;;;5034226;28;20060;-76
2020/12/30 14:54:18;;;;;;;12.02;7.53;;;8.60;99.90;;;;;;5045282;28;20360;-78
2020/12/30 14:56:44;;;;;;;18.45;9.10;;;8.50;99.90;;;;;;5016912;28;20036;-79
2020/12/30 14:59:11;;;;;;;22.00;8.95;;;8.60;99.90;;;;;;5048569;28;20025;-78
2020/12/30 15:01:37;;;;;;;23.20;12.48;;;8.50;99.90;;;;;;5037255;28;20081;-78
2020/12/30 15:04:03;;;;;;;14.10;7.22;;;8.50;99.90;;;;;;5037882;28;20029;-78
2020/12/30 15:06:30;;;;;;;17.75;7.80;;;8.40;99.90;;;;;;5038835;28;20078;-75
2020/12/30 15:08:55;;;;;;;34.17;15.15;;;8.40;99.90;;;;;;5034369;28;20052;-74
